sensor_id;sensor_type;location;lat;lon;timestamp;pressure;altitude;pressure_sealevel;temperature;humidity
29549;BME280;16487;53.094;8.800;2022-11-13T00:01:40;102966.09;;;6.53;100.00
29549;BME280;16487;53.094;8.800;2022-11-13T00:04:25;102956.00;;;6.45;100.00
29549;BME280;16487;53.094;8.800;2022-11-13T00:07:11;102957.88;;;6.41;100.00
29549;BME280;16487;53.094;8.800;2022-11-13T00:09:59;102960.13;;;6.36;100.00
29549;BME280;16487;53.094;8.800;2022-11-13T00:12:44;102956.84;;;6.30;100.00
29549;BME280;16487;53.094;8.800;2022-11-13T00:15:30;102976.06;;;6.23;100.00
29549;BME280;16487;53.094;8.800;2022-11-13T00:18:16;102976.31;;;6.18;100.00
29549;BME280;16487;53.094;8.800;2022-11-13T00:21:05;102976.19;;;6.11;100.00
29549;BME280;16487;53.094;8.800;2022-11-13T00:23:52;102981.53;;;6.04;100.00
29549;BME280;16487;53.094;8.800;2022-11-13T00:26:39;102965.63;;;6.01;100.00
29549;BME280;16487;53.094;8.800;2022-11-13T00:29:25;102972.31;;;6.00;100.00
29549;BME280;16487;53.094;8.800;2022-11-13T00:32:11;102970.00;;;5.87;100.00
29549;BME280;16487;53.094;8.800;2022-11-13T00:34:57;102973.38;;;5.80;100.00
29549;BME280;16487;53.094;8.800;2022-11-13T00:37:43;102967.22;;;5.71;100.00
29549;BME280;16487;53.094;8.800;2022-11-13T00:40:28;102961.56;;;5.67;100.00
29549;BME280;16487;53.094;8.800;2022-11-13T00:43:15;102972.81;;;5.59;100.00
29549;BME280;16487;53.094;8.800;2022-11-13T00:46:01;102976.38;;;5.59;100.00
29549;BME280;16487;53.094;8.800;2022-11-13T00:48:47;102973.97;;;5.58;100.00
29549;BME280;16487;53.094;8.800;2022-11-13T00:51:32;102981.81;;;5.56;100.00
29549;BME280;16487;53.094;8.800;2022-11-13T00:54:18;102986.19;;;5.57;100.00
29549;BME280;16487;53.094;8.800;2022-11-13T00:57:04;102980.41;;;5.62;100.00
29549;BME280;16487;53.094;8.800;2022-11-13T00:59:51;102982.72;;;5.60;100.00
29549;BME280;16487;53.094;8.800;2022-11-13T01:02:37;102977.44;;;5.55;100.00
29549;BME280;16487;53.094;8.800;2022-11-13T01:05:22;102990.66;;;5.61;100.00
29549;BME280;16487;53.094;8.800;2022-11-13T01:08:09;102989.06;;;5.60;100.00
29549;BME280;16487;53.094;8.800;2022-11-13T01:10:55;102991.00;;;5.60;100.00
29549;BME280;16487;53.094;8.800;2022-11-13T01:13:42;102993.31;;;5.58;100.00
29549;BME280;16487;53.094;8.800;2022-11-13T01:16:30;102989.16;;;5.64;100.00
29549;BME280;16487;53.094;8.800;2022-11-13T01:19:16;102992.69;;;5.64;100.00
29549;BME280;16487;53.094;8.800;2022-11-13T01:22:01;102995.81;;;5.63;100.00
29549;BME280;16487;53.094;8.800;2022-11-13T01:24:47;102988.25;;;5.60;100.00
29549;BME280;16487;53.094;8.800;2022-11-13T01:27:34;102995.31;;;5.57;100.00
29549;BME280;16487;53.094;8.800;2022-11-13T01:30:21;102984.94;;;5.54;100.00
29549;BME280;16487;53.094;8.800;2022-11-13T01:33:08;102978.59;;;5.54;100.00
29549;BME280;16487;53.094;8.800;2022-11-13T01:35:59;102976.97;;;5.53;100.00
29549;BME280;16487;53.094;8.800;2022-11-13T01:38:45;102976.25;;;5.56;100.00
29549;BME280;16487;53.094;8.800;2022-11-13T01:41:33;102980.91;;;5.52;100.00
29549;BME280;16487;53.094;8.800;2022-11-13T01:44:19;102981.38;;;5.54;100.00
29549;BME280;16487;53.094;8.800;2022-11-13T01:47:05;102976.97;;;5.53;100.00
29549;BME280;16487;53.094;8.800;2022-11-13T01:49:54;102974.78;;;5.58;100.00
29549;BME280;16487;53.094;8.800;2022-11-13T01:52:41;102971.63;;;5.60;100.00
29549;BME280;16487;53.094;8.800;2022-11-13T01:55:27;102972.56;;;5.64;100.00
29549;BME280;16487;53.094;8.800;2022-11-13T01:58:13;102972.03;;;5.74;100.00
29549;BME280;16487;53.094;8.800;2022-11-13T02:00:59;102965.78;;;5.77;100.00
29549;BME280;16487;53.094;8.800;2022-11-13T02:03:45;102959.34;;;5.73;100.00
29549;BME280;16487;53.094;8.800;2022-11-13T02:06:36;102956.13;;;5.71;100.00
29549;BME280;16487;53.094;8.800;2022-11-13T02:09:25;102953.28;;;5.67;100.00
29549;BME280;16487;53.094;8.800;2022-11-13T02:12:13;102956.41;;;5.66;100.00
29549;BME280;16487;53.094;8.800;2022-11-13T02:14:59;102955.13;;;5.63;100.00
29549;BME280;16487;53.094;8.800;2022-11-13T02:17:50;102952.38;;;5.63;100.00
29549;BME280;16487;53.094;8.800;2022-11-13T02:20:42;102953.63;;;5.66;100.00
29549;BME280;16487;53.094;8.800;2022-11-13T02:23:36;102948.97;;;5.70;100.00
29549;BME280;16487;53.094;8.800;2022-11-13T02:26:28;102946.66;;;5.72;100.00
29549;BME280;16487;53.094;8.800;2022-11-13T02:29:15;102935.16;;;5.70;100.00
29549;BME280;16487;53.094;8.800;2022-11-13T02:32:01;102943.53;;;5.73;100.00
29549;BME280;16487;53.094;8.800;2022-11-13T02:34:47;102935.25;;;5.73;100.00
29549;BME280;16487;53.094;8.800;2022-11-13T02:37:33;102925.44;;;5.76;100.00
29549;BME280;16487;53.094;8.800;2022-11-13T02:40:19;102927.31;;;5.72;100.00
29549;BME280;16487;53.094;8.800;2022-11-13T02:43:06;102927.94;;;5.65;100.00
29549;BME280;16487;53.094;8.800;2022-11-13T02:45:52;102926.41;;;5.68;100.00
29549;BME280;16487;53.094;8.800;2022-11-13T02:48:38;102914.91;;;5.66;100.00
29549;BME280;16487;53.094;8.800;2022-11-13T02:51:24;102908.66;;;5.69;100.00
29549;BME280;16487;53.094;8.800;2022-11-13T02:54:10;102909.38;;;5.66;100.00
29549;BME280;16487;53.094;8.800;2022-11-13T02:57:01;102913.28;;;5.65;100.00
29549;BME280;16487;53.094;8.800;2022-11-13T02:59:48;102909.81;;;5.68;100.00
29549;BME280;16487;53.094;8.800;2022-11-13T03:02:34;102906.88;;;5.61;100.00
29549;BME280;16487;53.094;8.800;2022-11-13T03:05:20;102908.47;;;5.62;100.00
29549;BME280;16487;53.094;8.800;2022-11-13T03:08:06;102911.69;;;5.64;100.00
29549;BME280;16487;53.094;8.800;2022-11-13T03:10:52;102904.13;;;5.61;100.00
29549;BME280;16487;53.094;8.800;2022-11-13T03:13:38;102906.88;;;5.61;100.00
29549;BME280;16487;53.094;8.800;2022-11-13T03:16:26;102900.09;;;5.58;100.00
29549;BME280;16487;53.094;8.800;2022-11-13T03:19:12;102896.50;;;5.58;100.00
29549;BME280;16487;53.094;8.800;2022-11-13T03:21:58;102894.91;;;5.57;100.00
29549;BME280;16487;53.094;8.800;2022-11-13T03:24:44;102887.75;;;5.56;100.00
29549;BME280;16487;53.094;8.800;2022-11-13T03:27:31;102885.34;;;5.54;100.00
29549;BME280;16487;53.094;8.800;2022-11-13T03:30:17;102889.75;;;5.55;100.00
29549;BME280;16487;53.094;8.800;2022-11-13T03:33:04;102884.47;;;5.50;100.00
29549;BME280;16487;53.094;8.800;2022-11-13T03:35:50;102884.03;;;5.48;100.00
29549;BME280;16487;53.094;8.800;2022-11-13T03:38:35;102889.56;;;5.48;100.00
29549;BME280;16487;53.094;8.800;2022-11-13T03:41:21;102891.41;;;5.44;100.00
29549;BME280;16487;53.094;8.800;2022-11-13T03:44:07;102895.44;;;5.47;100.00
29549;BME280;16487;53.094;8.800;2022-11-13T03:46:53;102889.19;;;5.50;100.00
29549;BME280;16487;53.094;8.800;2022-11-13T03:49:40;102896.94;;;5.44;100.00
29549;BME280;16487;53.094;8.800;2022-11-13T03:52:26;102904.00;;;5.42;100.00
29549;BME280;16487;53.094;8.800;2022-11-13T03:55:11;102896.84;;;5.41;100.00
29549;BME280;16487;53.094;8.800;2022-11-13T03:57:58;102894.34;;;5.36;100.00
29549;BME280;16487;53.094;8.800;2022-11-13T04:00:45;102894.34;;;5.36;100.00
29549;BME280;16487;53.094;8.800;2022-11-13T04:03:31;102887.13;;;5.31;100.00
29549;BME280;16487;53.094;8.800;2022-11-13T04:06:18;102896.56;;;5.30;100.00
29549;BME280;16487;53.094;8.800;2022-11-13T04:09:04;102904.41;;;5.28;100.00
29549;BME280;16487;53.094;8.800;2022-11-13T04:11:50;102909.94;;;5.28;100.00
29549;BME280;16487;53.094;8.800;2022-11-13T04:14:35;102907.53;;;5.27;100.00
29549;BME280;16487;53.094;8.800;2022-11-13T04:17:21;102903.63;;;5.28;100.00
29549;BME280;16487;53.094;8.800;2022-11-13T04:20:08;102902.38;;;5.25;100.00
29549;BME280;16487;53.094;8.800;2022-11-13T04:22:56;102907.81;;;5.22;100.00
29549;BME280;16487;53.094;8.800;2022-11-13T04:25:42;102909.22;;;5.16;100.00
29549;BME280;16487;53.094;8.800;2022-11-13T04:28:27;102912.00;;;5.16;100.00
29549;BME280;16487;53.094;8.800;2022-11-13T04:31:13;102905.28;;;5.17;100.00
29549;BME280;16487;53.094;8.800;2022-11-13T04:33:59;102907.50;;;5.11;100.00
29549;BME280;16487;53.094;8.800;2022-11-13T04:36:45;102911.91;;;5.12;100.00
29549;BME280;16487;53.094;8.800;2022-11-13T04:39:32;102915.63;;;5.20;100.00
29549;BME280;16487;53.094;8.800;2022-11-13T04:42:18;102911.53;;;5.14;100.00
29549;BME280;16487;53.094;8.800;2022-11-13T04:45:05;102919.13;;;5.17;100.00
29549;BME280;16487;53.094;8.800;2022-11-13T04:47:51;102915.44;;;5.13;100.00
29549;BME280;16487;53.094;8.800;2022-11-13T04:50:36;102918.22;;;5.13;100.00
29549;BME280;16487;53.094;8.800;2022-11-13T04:53:22;102924.34;;;5.06;100.00
29549;BME280;16487;53.094;8.800;2022-11-13T04:56:09;102920.78;;;5.06;100.00
29549;BME280;16487;53.094;8.800;2022-11-13T04:58:55;102929.78;;;5.03;100.00
29549;BME280;16487;53.094;8.800;2022-11-13T05:01:41;102929.31;;;5.01;100.00
29549;BME280;16487;53.094;8.800;2022-11-13T05:04:27;102940.38;;;5.01;100.00
29549;BME280;16487;53.094;8.800;2022-11-13T05:07:13;102941.09;;;4.98;100.00
29549;BME280;16487;53.094;8.800;2022-11-13T05:09:58;102936.38;;;4.98;100.00
29549;BME280;16487;53.094;8.800;2022-11-13T05:12:46;102935.91;;;4.96;100.00
29549;BME280;16487;53.094;8.800;2022-11-13T05:15:32;102940.97;;;4.94;100.00
29549;BME280;16487;53.094;8.800;2022-11-13T05:18:18;102942.94;;;4.94;100.00
29549;BME280;16487;53.094;8.800;2022-11-13T05:21:04;102950.97;;;4.99;100.00
29549;BME280;16487;53.094;8.800;2022-11-13T05:23:50;102950.78;;;4.92;100.00
29549;BME280;16487;53.094;8.800;2022-11-13T05:26:37;102944.56;;;4.95;100.00
29549;BME280;16487;53.094;8.800;2022-11-13T05:29:24;102951.31;;;4.97;100.00
29549;BME280;16487;53.094;8.800;2022-11-13T05:32:10;102943.13;;;5.01;100.00
29549;BME280;16487;53.094;8.800;2022-11-13T05:34:56;102957.09;;;4.92;100.00
29549;BME280;16487;53.094;8.800;2022-11-13T05:37:42;102957.59;;;4.82;100.00
29549;BME280;16487;53.094;8.800;2022-11-13T05:40:28;102955.19;;;4.81;100.00
29549;BME280;16487;53.094;8.800;2022-11-13T05:43:14;102953.91;;;4.78;100.00
29549;BME280;16487;53.094;8.800;2022-11-13T05:46:03;102971.19;;;4.75;100.00
29549;BME280;16487;53.094;8.800;2022-11-13T05:48:51;102978.56;;;4.71;100.00
29549;BME280;16487;53.094;8.800;2022-11-13T05:51:37;102988.84;;;4.71;100.00
29549;BME280;16487;53.094;8.800;2022-11-13T05:54:23;102996.66;;;4.68;100.00
29549;BME280;16487;53.094;8.800;2022-11-13T05:57:08;102998.34;;;4.73;100.00
29549;BME280;16487;53.094;8.800;2022-11-13T05:59:54;103004.69;;;4.74;100.00
29549;BME280;16487;53.094;8.800;2022-11-13T06:02:41;103019.09;;;4.67;100.00
29549;BME280;16487;53.094;8.800;2022-11-13T06:05:27;103023.59;;;4.59;100.00
29549;BME280;16487;53.094;8.800;2022-11-13T06:08:13;103031.41;;;4.57;100.00
29549;BME280;16487;53.094;8.800;2022-11-13T06:10:59;103035.91;;;4.50;100.00
29549;BME280;16487;53.094;8.800;2022-11-13T06:13:45;103036.16;;;4.45;100.00
29549;BME280;16487;53.094;8.800;2022-11-13T06:16:33;103043.63;;;4.44;100.00
29549;BME280;16487;53.094;8.800;2022-11-13T06:19:21;103055.38;;;4.41;100.00
29549;BME280;16487;53.094;8.800;2022-11-13T06:22:07;103049.16;;;4.44;100.00
29549;BME280;16487;53.094;8.800;2022-11-13T06:24:53;103055.81;;;4.43;100.00
29549;BME280;16487;53.094;8.800;2022-11-13T06:27:38;103062.25;;;4.47;100.00
29549;BME280;16487;53.094;8.800;2022-11-13T06:30:24;103077.66;;;4.48;100.00
29549;BME280;16487;53.094;8.800;2022-11-13T06:33:09;103078.59;;;4.40;100.00
29549;BME280;16487;53.094;8.800;2022-11-13T06:35:56;103082.75;;;4.46;100.00
29549;BME280;16487;53.094;8.800;2022-11-13T06:38:43;103096.53;;;4.46;100.00
29549;BME280;16487;53.094;8.800;2022-11-13T06:41:29;103097.69;;;4.45;100.00
29549;BME280;16487;53.094;8.800;2022-11-13T06:44:15;103117.69;;;4.42;100.00
29549;BME280;16487;53.094;8.800;2022-11-13T06:47:00;103139.31;;;4.40;100.00
29549;BME280;16487;53.094;8.800;2022-11-13T06:49:46;103140.94;;;4.41;100.00
29549;BME280;16487;53.094;8.800;2022-11-13T06:52:34;103162.56;;;4.39;100.00
29549;BME280;16487;53.094;8.800;2022-11-13T06:55:20;103163.03;;;4.41;100.00
29549;BME280;16487;53.094;8.800;2022-11-13T06:58:05;103182.38;;;4.41;100.00
29549;BME280;16487;53.094;8.800;2022-11-13T07:00:51;103185.13;;;4.41;100.00
29549;BME280;16487;53.094;8.800;2022-11-13T07:03:38;103201.91;;;4.48;100.00
29549;BME280;16487;53.094;8.800;2022-11-13T07:06:24;103211.13;;;4.52;100.00
29549;BME280;16487;53.094;8.800;2022-11-13T07:09:11;103228.31;;;4.58;100.00
29549;BME280;16487;53.094;8.800;2022-11-13T07:11:57;103237.53;;;4.62;100.00
29549;BME280;16487;53.094;8.800;2022-11-13T07:14:43;103255.25;;;4.73;100.00
29549;BME280;16487;53.094;8.800;2022-11-13T07:17:29;103263.66;;;4.77;100.00
29549;BME280;16487;53.094;8.800;2022-11-13T07:20:15;103283.59;;;4.82;100.00
29549;BME280;16487;53.094;8.800;2022-11-13T07:23:02;103295.72;;;4.90;100.00
29549;BME280;16487;53.094;8.800;2022-11-13T07:25:51;103309.31;;;4.95;100.00
29549;BME280;16487;53.094;8.800;2022-11-13T07:28:38;103329.38;;;5.04;100.00
29549;BME280;16487;53.094;8.800;2022-11-13T07:31:23;103335.16;;;5.11;100.00
29549;BME280;16487;53.094;8.800;2022-11-13T07:34:09;103356.81;;;5.21;100.00
29549;BME280;16487;53.094;8.800;2022-11-13T07:36:55;103369.84;;;5.32;100.00
29549;BME280;16487;53.094;8.800;2022-11-13T07:39:40;103379.97;;;5.40;100.00
29549;BME280;16487;53.094;8.800;2022-11-13T07:42:27;103394.06;;;5.47;100.00
29549;BME280;16487;53.094;8.800;2022-11-13T07:45:13;103411.25;;;5.53;100.00
29549;BME280;16487;53.094;8.800;2022-11-13T07:48:00;103413.13;;;5.61;100.00
29549;BME280;16487;53.094;8.800;2022-11-13T07:50:47;103420.59;;;5.72;100.00
29549;BME280;16487;53.094;8.800;2022-11-13T07:53:32;103420.72;;;5.76;100.00
29549;BME280;16487;53.094;8.800;2022-11-13T07:56:18;103427.31;;;5.83;100.00
29549;BME280;16487;53.094;8.800;2022-11-13T07:59:09;103424.00;;;5.90;100.00
29549;BME280;16487;53.094;8.800;2022-11-13T08:01:55;103426.75;;;6.02;100.00
29549;BME280;16487;53.094;8.800;2022-11-13T08:04:42;103420.41;;;6.14;100.00
29549;BME280;16487;53.094;8.800;2022-11-13T08:07:27;103422.13;;;6.30;100.00
29549;BME280;16487;53.094;8.800;2022-11-13T08:10:13;103412.88;;;6.38;100.00
29549;BME280;16487;53.094;8.800;2022-11-13T08:13:01;103394.59;;;6.49;100.00
29549;BME280;16487;53.094;8.800;2022-11-13T08:15:48;103380.63;;;6.58;100.00
29549;BME280;16487;53.094;8.800;2022-11-13T08:18:34;103348.56;;;6.72;100.00
29549;BME280;16487;53.094;8.800;2022-11-13T08:21:20;103335.81;;;6.83;100.00
29549;BME280;16487;53.094;8.800;2022-11-13T08:24:07;103303.53;;;6.91;100.00
29549;BME280;16487;53.094;8.800;2022-11-13T08:26:53;103271.44;;;7.06;100.00
29549;BME280;16487;53.094;8.800;2022-11-13T08:29:39;103234.56;;;7.05;100.00
29549;BME280;16487;53.094;8.800;2022-11-13T08:32:27;103191.00;;;7.21;100.00
29549;BME280;16487;53.094;8.800;2022-11-13T08:35:13;103145.19;;;7.27;100.00
29549;BME280;16487;53.094;8.800;2022-11-13T08:38:08;103101.00;;;7.38;100.00
29549;BME280;16487;53.094;8.800;2022-11-13T08:40:56;103069.19;;;7.51;100.00
29549;BME280;16487;53.094;8.800;2022-11-13T08:43:42;103031.31;;;7.39;100.00
29549;BME280;16487;53.094;8.800;2022-11-13T08:46:28;102999.41;;;7.49;100.00
29549;BME280;16487;53.094;8.800;2022-11-13T08:49:17;102969.22;;;7.66;100.00
29549;BME280;16487;53.094;8.800;2022-11-13T08:52:06;102946.88;;;7.59;100.00
29549;BME280;16487;53.094;8.800;2022-11-13T08:54:51;102914.50;;;7.67;100.00
29549;BME280;16487;53.094;8.800;2022-11-13T08:57:38;102886.97;;;7.81;100.00
29549;BME280;16487;53.094;8.800;2022-11-13T09:00:23;102867.13;;;7.79;100.00
29549;BME280;16487;53.094;8.800;2022-11-13T09:03:10;102844.50;;;7.77;100.00
29549;BME280;16487;53.094;8.800;2022-11-13T09:05:58;102827.94;;;7.84;100.00
29549;BME280;16487;53.094;8.800;2022-11-13T09:08:43;102811.81;;;7.93;100.00
29549;BME280;16487;53.094;8.800;2022-11-13T09:11:29;102806.28;;;7.96;100.00
29549;BME280;16487;53.094;8.800;2022-11-13T09:14:15;102799.19;;;7.99;100.00
29549;BME280;16487;53.094;8.800;2022-11-13T09:17:01;102769.28;;;8.15;100.00
29549;BME280;16487;53.094;8.800;2022-11-13T09:19:47;102765.34;;;8.20;100.00
29549;BME280;16487;53.094;8.800;2022-11-13T09:22:34;102746.41;;;8.25;100.00
29549;BME280;16487;53.094;8.800;2022-11-13T09:25:20;102737.75;;;8.30;100.00
29549;BME280;16487;53.094;8.800;2022-11-13T09:28:06;102731.16;;;8.45;100.00
29549;BME280;16487;53.094;8.800;2022-11-13T09:30:52;102727.28;;;8.53;100.00
29549;BME280;16487;53.094;8.800;2022-11-13T09:33:37;102718.16;;;8.53;100.00
29549;BME280;16487;53.094;8.800;2022-11-13T09:36:23;102714.63;;;8.59;100.00
29549;BME280;16487;53.094;8.800;2022-11-13T09:39:11;102710.88;;;8.78;100.00
29549;BME280;16487;53.094;8.800;2022-11-13T09:42:01;102710.91;;;8.85;100.00
29549;BME280;16487;53.094;8.800;2022-11-13T09:44:52;102691.91;;;8.90;100.00
29549;BME280;16487;53.094;8.800;2022-11-13T09:47:40;102695.97;;;9.00;100.00
29549;BME280;16487;53.094;8.800;2022-11-13T09:50:28;102701.22;;;9.12;100.00
29549;BME280;16487;53.094;8.800;2022-11-13T09:53:15;102691.34;;;9.21;100.00
29549;BME280;16487;53.094;8.800;2022-11-13T09:56:13;102691.84;;;9.34;100.00
29549;BME280;16487;53.094;8.800;2022-11-13T09:59:13;102682.38;;;9.49;100.00
29549;BME280;16487;53.094;8.800;2022-11-13T10:02:07;102675.75;;;9.68;100.00
29549;BME280;16487;53.094;8.800;2022-11-13T10:05:00;102661.72;;;11.13;100.00
29549;BME280;16487;53.094;8.800;2022-11-13T10:07:53;102648.56;;;11.24;100.00
29549;BME280;16487;53.094;8.800;2022-11-13T10:10:47;102647.41;;;11.01;100.00
29549;BME280;16487;53.094;8.800;2022-11-13T10:13:44;102632.66;;;11.04;100.00
29549;BME280;16487;53.094;8.800;2022-11-13T10:16:32;102638.25;;;11.00;100.00
29549;BME280;16487;53.094;8.800;2022-11-13T10:19:24;102634.63;;;11.07;100.00
29549;BME280;16487;53.094;8.800;2022-11-13T10:22:14;102631.78;;;11.45;100.00
29549;BME280;16487;53.094;8.800;2022-11-13T10:25:20;102625.81;;;12.30;100.00
29549;BME280;16487;53.094;8.800;2022-11-13T10:28:11;102625.50;;;12.72;100.00
29549;BME280;16487;53.094;8.800;2022-11-13T10:31:20;102617.41;;;14.49;100.00
29549;BME280;16487;53.094;8.800;2022-11-13T10:34:06;102605.25;;;15.68;100.00
29549;BME280;16487;53.094;8.800;2022-11-13T10:37:09;102612.72;;;16.30;100.00
29549;BME280;16487;53.094;8.800;2022-11-13T10:39:57;102610.75;;;14.40;100.00
29549;BME280;16487;53.094;8.800;2022-11-13T10:42:43;102616.28;;;14.93;100.00
29549;BME280;16487;53.094;8.800;2022-11-13T10:45:29;102617.78;;;15.01;100.00
29549;BME280;16487;53.094;8.800;2022-11-13T10:48:24;102613.34;;;14.77;100.00
29549;BME280;16487;53.094;8.800;2022-11-13T10:51:21;102607.06;;;15.16;100.00
29549;BME280;16487;53.094;8.800;2022-11-13T10:54:22;102603.84;;;14.94;100.00
29549;BME280;16487;53.094;8.800;2022-11-13T10:57:21;102598.88;;;15.25;100.00
29549;BME280;16487;53.094;8.800;2022-11-13T11:00:23;102595.59;;;15.07;100.00
29549;BME280;16487;53.094;8.800;2022-11-13T11:03:13;102590.03;;;15.03;100.00
29549;BME280;16487;53.094;8.800;2022-11-13T11:06:03;102588.13;;;15.20;100.00
29549;BME280;16487;53.094;8.800;2022-11-13T11:08:49;102581.72;;;14.96;100.00
29549;BME280;16487;53.094;8.800;2022-11-13T11:11:35;102571.56;;;15.25;100.00
29549;BME280;16487;53.094;8.800;2022-11-13T11:14:26;102582.22;;;15.14;100.00
29549;BME280;16487;53.094;8.800;2022-11-13T11:17:14;102571.13;;;15.85;100.00
29549;BME280;16487;53.094;8.800;2022-11-13T11:20:06;102567.81;;;16.58;100.00
29549;BME280;16487;53.094;8.800;2022-11-13T11:22:57;102550.44;;;17.21;100.00
29549;BME280;16487;53.094;8.800;2022-11-13T11:25:49;102557.59;;;17.54;100.00
29549;BME280;16487;53.094;8.800;2022-11-13T11:28:42;102564.06;;;18.29;100.00
29549;BME280;16487;53.094;8.800;2022-11-13T11:31:32;102550.84;;;18.52;100.00
29549;BME280;16487;53.094;8.800;2022-11-13T11:34:24;102549.28;;;18.51;100.00
29549;BME280;16487;53.094;8.800;2022-11-13T11:37:15;102539.00;;;18.19;100.00
29549;BME280;16487;53.094;8.800;2022-11-13T11:40:05;102541.84;;;18.91;100.00
29549;BME280;16487;53.094;8.800;2022-11-13T11:43:05;102540.34;;;18.65;100.00
29549;BME280;16487;53.094;8.800;2022-11-13T11:45:56;102541.59;;;18.39;100.00
29549;BME280;16487;53.094;8.800;2022-11-13T11:48:41;102533.75;;;18.80;100.00
29549;BME280;16487;53.094;8.800;2022-11-13T11:51:30;102537.78;;;18.07;100.00
29549;BME280;16487;53.094;8.800;2022-11-13T11:54:26;102544.88;;;18.24;100.00
29549;BME280;16487;53.094;8.800;2022-11-13T11:57:31;102537.91;;;19.10;100.00
29549;BME280;16487;53.094;8.800;2022-11-13T12:00:21;102542.28;;;18.05;100.00
29549;BME280;16487;53.094;8.800;2022-11-13T12:03:32;102529.66;;;17.43;100.00
29549;BME280;16487;53.094;8.800;2022-11-13T12:06:31;102534.78;;;17.48;100.00
29549;BME280;16487;53.094;8.800;2022-11-13T12:09:23;102528.72;;;18.38;100.00
29549;BME280;16487;53.094;8.800;2022-11-13T12:12:17;102525.25;;;17.83;100.00
29549;BME280;16487;53.094;8.800;2022-11-13T12:15:13;102528.41;;;18.10;100.00
29549;BME280;16487;53.094;8.800;2022-11-13T12:18:10;102520.50;;;18.43;100.00
29549;BME280;16487;53.094;8.800;2022-11-13T12:21:07;102523.97;;;18.35;100.00
29549;BME280;16487;53.094;8.800;2022-11-13T12:24:16;102509.91;;;19.03;100.00
29549;BME280;16487;53.094;8.800;2022-11-13T12:27:11;102518.69;;;18.49;100.00
29549;BME280;16487;53.094;8.800;2022-11-13T12:30:08;102510.09;;;18.27;100.00
29549;BME280;16487;53.094;8.800;2022-11-13T12:33:05;102509.41;;;18.49;100.00
29549;BME280;16487;53.094;8.800;2022-11-13T12:35:53;102501.34;;;18.60;100.00
29549;BME280;16487;53.094;8.800;2022-11-13T12:38:45;102489.72;;;18.92;100.00
29549;BME280;16487;53.094;8.800;2022-11-13T12:41:39;102489.41;;;18.30;100.00
29549;BME280;16487;53.094;8.800;2022-11-13T12:44:27;102488.72;;;18.52;100.00
29549;BME280;16487;53.094;8.800;2022-11-13T12:47:13;102486.38;;;18.25;100.00
29549;BME280;16487;53.094;8.800;2022-11-13T12:50:03;102482.44;;;18.22;100.00
29549;BME280;16487;53.094;8.800;2022-11-13T12:53:00;102492.59;;;18.20;100.00
29549;BME280;16487;53.094;8.800;2022-11-13T12:55:55;102484.25;;;18.16;100.00
29549;BME280;16487;53.094;8.800;2022-11-13T12:58:52;102482.59;;;18.66;100.00
29549;BME280;16487;53.094;8.800;2022-11-13T13:02:08;102487.56;;;18.62;100.00
29549;BME280;16487;53.094;8.800;2022-11-13T13:05:15;102475.78;;;18.76;100.00
29549;BME280;16487;53.094;8.800;2022-11-13T13:08:31;102477.03;;;18.75;100.00
29549;BME280;16487;53.094;8.800;2022-11-13T13:11:34;102479.28;;;18.46;100.00
29549;BME280;16487;53.094;8.800;2022-11-13T13:14:36;102478.94;;;17.02;100.00
29549;BME280;16487;53.094;8.800;2022-11-13T13:17:25;102476.84;;;17.72;100.00
29549;BME280;16487;53.094;8.800;2022-11-13T13:20:31;102467.72;;;17.27;100.00
29549;BME280;16487;53.094;8.800;2022-11-13T13:23:26;102476.69;;;18.13;100.00
29549;BME280;16487;53.094;8.800;2022-11-13T13:26:15;102472.66;;;18.14;100.00
29549;BME280;16487;53.094;8.800;2022-11-13T13:29:13;102464.19;;;17.64;100.00
29549;BME280;16487;53.094;8.800;2022-11-13T13:32:09;102461.06;;;17.34;100.00
29549;BME280;16487;53.094;8.800;2022-11-13T13:35:12;102461.53;;;17.32;100.00
29549;BME280;16487;53.094;8.800;2022-11-13T13:38:09;102454.38;;;17.15;100.00
29549;BME280;16487;53.094;8.800;2022-11-13T13:41:15;102448.44;;;16.40;100.00
29549;BME280;16487;53.094;8.800;2022-11-13T13:44:18;102450.97;;;16.95;100.00
29549;BME280;16487;53.094;8.800;2022-11-13T13:47:13;102448.34;;;17.29;100.00
29549;BME280;16487;53.094;8.800;2022-11-13T13:50:04;102450.16;;;16.66;100.00
29549;BME280;16487;53.094;8.800;2022-11-13T13:52:51;102452.09;;;16.69;100.00
29549;BME280;16487;53.094;8.800;2022-11-13T13:55:46;102439.75;;;16.79;100.00
29549;BME280;16487;53.094;8.800;2022-11-13T13:58:35;102447.16;;;17.01;100.00
29549;BME280;16487;53.094;8.800;2022-11-13T14:01:26;102454.16;;;16.36;100.00
29549;BME280;16487;53.094;8.800;2022-11-13T14:04:15;102440.59;;;16.31;100.00
29549;BME280;16487;53.094;8.800;2022-11-13T14:07:02;102447.22;;;16.57;100.00
29549;BME280;16487;53.094;8.800;2022-11-13T14:09:49;102439.47;;;16.13;100.00
29549;BME280;16487;53.094;8.800;2022-11-13T14:12:40;102445.63;;;15.91;100.00
29549;BME280;16487;53.094;8.800;2022-11-13T14:15:28;102443.94;;;15.62;100.00
29549;BME280;16487;53.094;8.800;2022-11-13T14:18:16;102437.00;;;15.66;100.00
29549;BME280;16487;53.094;8.800;2022-11-13T14:21:04;102449.69;;;15.00;100.00
29549;BME280;16487;53.094;8.800;2022-11-13T14:23:54;102440.84;;;15.01;100.00
29549;BME280;16487;53.094;8.800;2022-11-13T14:26:40;102447.28;;;15.37;100.00
29549;BME280;16487;53.094;8.800;2022-11-13T14:29:33;102450.47;;;15.39;100.00
29549;BME280;16487;53.094;8.800;2022-11-13T14:32:22;102449.59;;;15.23;100.00
29549;BME280;16487;53.094;8.800;2022-11-13T14:35:17;102448.97;;;15.15;100.00
29549;BME280;16487;53.094;8.800;2022-11-13T14:38:03;102449.91;;;15.48;100.00
29549;BME280;16487;53.094;8.800;2022-11-13T14:40:49;102446.44;;;15.21;100.00